Richmond, VA (23229)

5:01 PM EDT on September 22, 2014 (GMT -0400)
Windsor Farms | Change Station
CLOSE
Current Station
Personal Weather Station
Location: Richmond, VA
Elevation: 242 ft
Nearby Weather Stations

Elev 242 ft 37.56 °N, 77.50 °W | Updated 1 minute ago

Clear
Clear
78.0 °F
Feels Like 79 °F
N
1.0
Wind Variable Wind from NE
Gusts 1.0 mph

Today
High -- | Low -- °F
--% Chance of Precip.
Yesterday
High -- | Low -- °F
Precip. -- in
6:57 AM 7:07 PM
Waning Crescent, 2% visible
Pressure 30.05 in
Visibility 10.0 miles
Clouds Few 7000 ft
Mostly Cloudy 25000 ft
Heat Index 79 °F
Dew Point 51 °F
Humidity 39%
Rainfall 0.00 in
Snow Depth Not available.
UV 1 out of 12
Pollen 5.40 out of 12
Ozone Good
PM2.5 Good
Flu Activity Not available.
METAR KRIC 222054Z 36009KT 10SM FEW070 BKN250 26/07 A3004 RMK AO2 SLP175 T02560072 53007

More Conditions Fewer Conditions

Pressure 30.05 in
Visibility 10.0 miles
Clouds Few 7000 ft
Mostly Cloudy 25000 ft
Heat Index 79 °F
Dew Point 51 °F
Humidity 39%
Rainfall 0.00 in
Snow Depth Not available.
UV 1 out of 12
Pollen 5.40 out of 12
Ozone Good
PM2.5 Good
Flu Activity Not available.
METAR KRIC 222054Z 36009KT 10SM FEW070 BKN250 26/07 A3004 RMK AO2 SLP175 T02560072 53007

More Conditions Fewer Conditions

10-Day Weather Forecast

Almanac

Astronomy

Sep. 22, 2014 Rise Set
Actual Time 6:57 AM EDT 7:07 PM EDT
Civil Twilight 6:31 AM EDT 7:33 PM EDT
Nautical Twilight 6:01 AM EDT 8:03 PM EDT
Astronomical Twilight 5:30 AM EDT 8:34 PM EDT
Moon 5:25 AM EDT 6:12 PM EDT
Length of Visible Light 13h 01m
Length of Day
12h 09m
Tomorrow will be 2m 24s shorter.
Waning Crescent, 2% of the Moon is Illuminated
Today
Waning Crescent
Sep 24
New
Oct 1
First Quarter
Oct 8
Full
Oct 15
Last Quarter

Today's Extremes

State Highs State Lows

Community

WunderPhotos

Upload Photos

1,755,530 photos uploaded!

Nearby

Air Quality

  Air Quality AQ Index Pollutant
Yesterday Good
OZONE
Yesterday Good
PM2.5
Current Good
OZONE
Current Good
PM2.5
Monday Good
PM2.5
Tuesday Good
PM2.5

Snow Depth

Station Depth Elevation
No new snow has been reported.

Earthquake Activity

City Distance Mag. Time & Date
No recent earthquake activity has been reported nearby.
Minimum magnitude displayed is 2.5.

Coastal Water Temperatures

Place Temperature
No Stations Reporting

Nearby Weather Stations